Terminal Aerodrome Forecast
Issued by NWS Upton, NY

Home | Current Version | Previous Version | Text Only | Print | Product List | Glossary On
Versions: 1 2 3 4 5 6 7 8 9 10 11 12 13 14 15 16 17 18 19 20 21 22 23 24 25 26 27 28 29 30 31 32 33
318
FTUS41 KOKX 261742
TAFEWR
TAF
KEWR 261742Z 2618/2724 30014G22KT P6SM FEW060 FEW250
     FM262300 30008KT P6SM FEW060 FEW250
     FM270300 35005KT P6SM FEW250
     FM271700 25007KT P6SM FEW200
     FM272000 19008KT P6SM FEW060 FEW200=

USA.gov is the U.S. government's official web portal to all federal, state and local government web resources and services.